sensor_id;sensor_type;location;lat;lon;timestamp;pressure;altitude;pressure_sealevel;temperature;humidity
3434;BME280;1730;41.932;25.548;2023-08-12T00:01:48;99485.84;;;18.33;100.00
3434;BME280;1730;41.932;25.548;2023-08-12T00:04:14;99565.00;;;18.88;100.00
3434;BME280;1730;41.932;25.548;2023-08-12T00:06:43;99567.03;;;18.73;100.00
3434;BME280;1730;41.932;25.548;2023-08-12T00:09:09;99574.47;;;18.58;100.00
3434;BME280;1730;41.932;25.548;2023-08-12T00:11:37;99530.13;;;18.28;100.00
3434;BME280;1730;41.932;25.548;2023-08-12T00:14:03;99563.66;;;18.22;100.00
3434;BME280;1730;41.932;25.548;2023-08-12T00:16:29;99603.63;;;18.30;100.00
3434;BME280;1730;41.932;25.548;2023-08-12T00:18:54;99594.94;;;18.47;100.00
3434;BME280;1730;41.932;25.548;2023-08-12T00:21:20;99437.50;;;17.50;100.00
3434;BME280;1730;41.932;25.548;2023-08-12T00:23:46;99586.69;;;18.62;100.00
3434;BME280;1730;41.932;25.548;2023-08-12T00:26:13;99579.94;;;18.58;100.00
3434;BME280;1730;41.932;25.548;2023-08-12T00:28:38;99586.38;;;18.51;100.00
3434;BME280;1730;41.932;25.548;2023-08-12T00:31:04;99583.81;;;18.49;100.00
3434;BME280;1730;41.932;25.548;2023-08-12T00:33:29;99587.16;;;18.44;100.00
3434;BME280;1730;41.932;25.548;2023-08-12T00:35:57;99595.50;;;18.36;100.00
3434;BME280;1730;41.932;25.548;2023-08-12T00:38:22;99412.19;;;17.13;100.00
3434;BME280;1730;41.932;25.548;2023-08-12T00:40:48;99608.38;;;18.21;100.00
3434;BME280;1730;41.932;25.548;2023-08-12T00:43:13;99599.16;;;18.22;100.00
3434;BME280;1730;41.932;25.548;2023-08-12T00:45:39;99633.16;;;18.47;100.00
3434;BME280;1730;41.932;25.548;2023-08-12T00:48:06;99491.94;;;17.58;100.00
3434;BME280;1730;41.932;25.548;2023-08-12T00:50:33;99602.41;;;18.11;100.00
3434;BME280;1730;41.932;25.548;2023-08-12T00:52:59;99604.87;;;18.06;100.00
3434;BME280;1730;41.932;25.548;2023-08-12T00:55:25;99602.09;;;18.21;100.00
3434;BME280;1730;41.932;25.548;2023-08-12T00:57:58;99327.63;;;16.50;100.00
3434;BME280;1730;41.932;25.548;2023-08-12T01:00:24;99004.16;;;14.25;100.00
3434;BME280;1730;41.932;25.548;2023-08-12T01:02:51;99610.41;;;17.91;100.00
3434;BME280;1730;41.932;25.548;2023-08-12T01:05:17;99606.44;;;17.94;100.00
3434;BME280;1730;41.932;25.548;2023-08-12T01:07:43;99508.88;;;17.18;100.00
3434;BME280;1730;41.932;25.548;2023-08-12T01:10:10;99620.97;;;17.80;100.00
3434;BME280;1730;41.932;25.548;2023-08-12T01:13:07;99632.16;;;17.85;100.00
3434;BME280;1730;41.932;25.548;2023-08-12T01:15:35;99632.47;;;17.75;100.00
3434;BME280;1730;41.932;25.548;2023-08-12T01:18:01;99625.47;;;17.87;100.00
3434;BME280;1730;41.932;25.548;2023-08-12T01:20:28;99623.00;;;17.92;100.00
3434;BME280;1730;41.932;25.548;2023-08-12T01:23:14;99625.34;;;17.95;100.00
3434;BME280;1730;41.932;25.548;2023-08-12T01:25:40;99619.94;;;17.81;100.00
3434;BME280;1730;41.932;25.548;2023-08-12T01:28:07;99623.12;;;17.84;100.00
3434;BME280;1730;41.932;25.548;2023-08-12T01:30:36;99623.44;;;17.75;100.00
3434;BME280;1730;41.932;25.548;2023-08-12T01:35:38;99634.91;;;17.85;100.00
3434;BME280;1730;41.932;25.548;2023-08-12T01:38:06;99624.75;;;17.79;100.00
3434;BME280;1730;41.932;25.548;2023-08-12T01:40:35;99624.09;;;17.77;100.00
3434;BME280;1730;41.932;25.548;2023-08-12T01:43:02;99581.03;;;17.57;100.00
3434;BME280;1730;41.932;25.548;2023-08-12T01:45:30;99614.88;;;17.99;100.00
3434;BME280;1730;41.932;25.548;2023-08-12T01:47:57;99609.38;;;17.92;100.00
3434;BME280;1730;41.932;25.548;2023-08-12T01:50:23;99614.09;;;17.84;100.00
3434;BME280;1730;41.932;25.548;2023-08-12T01:52:48;99614.16;;;17.90;100.00
3434;BME280;1730;41.932;25.548;2023-08-12T01:55:14;99603.78;;;18.00;100.00
3434;BME280;1730;41.932;25.548;2023-08-12T01:57:39;99505.00;;;17.27;100.00
3434;BME280;1730;41.932;25.548;2023-08-12T02:00:06;99609.75;;;17.89;100.00
3434;BME280;1730;41.932;25.548;2023-08-12T02:02:31;99607.28;;;17.94;100.00
3434;BME280;1730;41.932;25.548;2023-08-12T02:04:57;99618.53;;;17.85;100.00
3434;BME280;1730;41.932;25.548;2023-08-12T02:07:23;99618.25;;;17.80;100.00
3434;BME280;1730;41.932;25.548;2023-08-12T02:09:48;99614.22;;;17.97;100.00
3434;BME280;1730;41.932;25.548;2023-08-12T02:12:14;99518.69;;;17.33;100.00
3434;BME280;1730;41.932;25.548;2023-08-12T02:14:39;99605.50;;;18.08;100.00
3434;BME280;1730;41.932;25.548;2023-08-12T02:17:06;99539.28;;;17.72;100.00
3434;BME280;1730;41.932;25.548;2023-08-12T02:19:32;99582.37;;;17.83;100.00
3434;BME280;1730;41.932;25.548;2023-08-12T02:21:59;99610.97;;;18.08;100.00
3434;BME280;1730;41.932;25.548;2023-08-12T02:24:25;99613.06;;;18.06;100.00
3434;BME280;1730;41.932;25.548;2023-08-12T02:26:50;99612.13;;;17.99;100.00
3434;BME280;1730;41.932;25.548;2023-08-12T02:29:16;99600.16;;;17.93;100.00
3434;BME280;1730;41.932;25.548;2023-08-12T02:31:41;99412.66;;;16.81;100.00
3434;BME280;1730;41.932;25.548;2023-08-12T02:34:07;99630.47;;;18.05;100.00
3434;BME280;1730;41.932;25.548;2023-08-12T02:36:33;99629.34;;;17.78;100.00
3434;BME280;1730;41.932;25.548;2023-08-12T02:38:59;99630.91;;;17.87;100.00
3434;BME280;1730;41.932;25.548;2023-08-12T02:41:24;99640.72;;;17.82;100.00
3434;BME280;1730;41.932;25.548;2023-08-12T02:43:50;99631.09;;;17.86;100.00
3434;BME280;1730;41.932;25.548;2023-08-12T02:46:15;99442.56;;;16.75;100.00
3434;BME280;1730;41.932;25.548;2023-08-12T02:48:43;99490.59;;;16.97;100.00
3434;BME280;1730;41.932;25.548;2023-08-12T02:51:08;99638.66;;;18.05;100.00
3434;BME280;1730;41.932;25.548;2023-08-12T02:53:33;99621.44;;;17.83;100.00
3434;BME280;1730;41.932;25.548;2023-08-12T02:55:59;99637.50;;;17.93;100.00
3434;BME280;1730;41.932;25.548;2023-08-12T02:58:24;99639.28;;;17.86;100.00
3434;BME280;1730;41.932;25.548;2023-08-12T03:00:51;99648.72;;;17.83;100.00
3434;BME280;1730;41.932;25.548;2023-08-12T03:03:16;99640.94;;;17.80;100.00
3434;BME280;1730;41.932;25.548;2023-08-12T03:05:46;99651.84;;;17.80;100.00
3434;BME280;1730;41.932;25.548;2023-08-12T03:08:11;99648.13;;;17.67;100.00
3434;BME280;1730;41.932;25.548;2023-08-12T03:10:37;99653.62;;;17.73;100.00
3434;BME280;1730;41.932;25.548;2023-08-12T03:13:03;99649.53;;;17.63;100.00
3434;BME280;1730;41.932;25.548;2023-08-12T03:15:29;99651.63;;;17.82;100.00
3434;BME280;1730;41.932;25.548;2023-08-12T03:17:55;99647.75;;;17.55;100.00
3434;BME280;1730;41.932;25.548;2023-08-12T03:20:21;99659.69;;;17.54;100.00
3434;BME280;1730;41.932;25.548;2023-08-12T03:22:47;99629.69;;;17.25;100.00
3434;BME280;1730;41.932;25.548;2023-08-12T03:25:12;99648.59;;;17.41;100.00
3434;BME280;1730;41.932;25.548;2023-08-12T03:27:40;99661.72;;;17.52;100.00
3434;BME280;1730;41.932;25.548;2023-08-12T03:30:06;99662.72;;;17.59;100.00
3434;BME280;1730;41.932;25.548;2023-08-12T03:32:31;99662.16;;;17.64;100.00
3434;BME280;1730;41.932;25.548;2023-08-12T03:34:58;99653.28;;;17.62;100.00
3434;BME280;1730;41.932;25.548;2023-08-12T03:37:25;99620.47;;;17.55;100.00
3434;BME280;1730;41.932;25.548;2023-08-12T03:39:50;99646.16;;;17.82;100.00
3434;BME280;1730;41.932;25.548;2023-08-12T03:42:16;99632.25;;;17.41;100.00
3434;BME280;1730;41.932;25.548;2023-08-12T03:44:42;99626.69;;;17.64;100.00
3434;BME280;1730;41.932;25.548;2023-08-12T03:47:08;99596.47;;;17.65;100.00
3434;BME280;1730;41.932;25.548;2023-08-12T03:49:34;99624.62;;;18.29;100.00
3434;BME280;1730;41.932;25.548;2023-08-12T03:51:59;99618.84;;;18.18;100.00
3434;BME280;1730;41.932;25.548;2023-08-12T03:54:25;99600.88;;;18.51;100.00
3434;BME280;1730;41.932;25.548;2023-08-12T03:56:50;99573.44;;;18.59;100.00
3434;BME280;1730;41.932;25.548;2023-08-12T03:59:16;99593.41;;;18.94;100.00
3434;BME280;1730;41.932;25.548;2023-08-12T04:01:41;99585.06;;;19.43;100.00
3434;BME280;1730;41.932;25.548;2023-08-12T04:04:07;99443.91;;;18.88;100.00
3434;BME280;1730;41.932;25.548;2023-08-12T04:06:32;99571.47;;;19.69;100.00
3434;BME280;1730;41.932;25.548;2023-08-12T04:08:57;99519.06;;;19.92;100.00
3434;BME280;1730;41.932;25.548;2023-08-12T04:11:23;99516.50;;;19.58;100.00
3434;BME280;1730;41.932;25.548;2023-08-12T04:13:48;99551.13;;;20.51;100.00
3434;BME280;1730;41.932;25.548;2023-08-12T04:16:14;99552.56;;;20.20;100.00
3434;BME280;1730;41.932;25.548;2023-08-12T04:18:39;99555.75;;;20.57;100.00
3434;BME280;1730;41.932;25.548;2023-08-12T04:21:05;99556.59;;;20.71;100.00
3434;BME280;1730;41.932;25.548;2023-08-12T04:23:30;99560.50;;;20.94;100.00
3434;BME280;1730;41.932;25.548;2023-08-12T04:25:56;99553.53;;;20.98;100.00
3434;BME280;1730;41.932;25.548;2023-08-12T04:28:21;99542.09;;;21.21;100.00
3434;BME280;1730;41.932;25.548;2023-08-12T04:30:48;99533.97;;;21.77;100.00
3434;BME280;1730;41.932;25.548;2023-08-12T04:33:16;99536.44;;;21.92;100.00
3434;BME280;1730;41.932;25.548;2023-08-12T04:35:41;99542.28;;;22.33;100.00
3434;BME280;1730;41.932;25.548;2023-08-12T04:38:08;99536.75;;;22.58;100.00
3434;BME280;1730;41.932;25.548;2023-08-12T04:40:33;99531.53;;;23.11;100.00
3434;BME280;1730;41.932;25.548;2023-08-12T04:42:59;99525.00;;;23.42;100.00
3434;BME280;1730;41.932;25.548;2023-08-12T04:45:25;99525.69;;;23.38;100.00
3434;BME280;1730;41.932;25.548;2023-08-12T04:47:50;99524.03;;;23.18;100.00
3434;BME280;1730;41.932;25.548;2023-08-12T04:50:17;99532.06;;;23.98;100.00
3434;BME280;1730;41.932;25.548;2023-08-12T04:52:44;99524.00;;;23.96;100.00
3434;BME280;1730;41.932;25.548;2023-08-12T04:55:09;99527.38;;;24.75;100.00
3434;BME280;1730;41.932;25.548;2023-08-12T04:57:38;99534.81;;;24.51;100.00
3434;BME280;1730;41.932;25.548;2023-08-12T05:00:04;99536.72;;;24.50;100.00
3434;BME280;1730;41.932;25.548;2023-08-12T05:02:33;99534.25;;;25.24;100.00
3434;BME280;1730;41.932;25.548;2023-08-12T05:04:58;99527.44;;;25.26;100.00
3434;BME280;1730;41.932;25.548;2023-08-12T05:07:24;99535.72;;;25.26;100.00
3434;BME280;1730;41.932;25.548;2023-08-12T05:09:49;99530.31;;;25.20;100.00
3434;BME280;1730;41.932;25.548;2023-08-12T05:12:15;99539.47;;;24.85;100.00
3434;BME280;1730;41.932;25.548;2023-08-12T05:14:41;99535.97;;;25.01;100.00
3434;BME280;1730;41.932;25.548;2023-08-12T05:17:07;99481.53;;;26.82;100.00
3434;BME280;1730;41.932;25.548;2023-08-12T05:19:32;99541.25;;;26.78;100.00
3434;BME280;1730;41.932;25.548;2023-08-12T05:21:59;99538.16;;;26.74;100.00
3434;BME280;1730;41.932;25.548;2023-08-12T05:24:24;99495.72;;;28.31;100.00
3434;BME280;1730;41.932;25.548;2023-08-12T05:26:50;99464.09;;;27.47;100.00
3434;BME280;1730;41.932;25.548;2023-08-12T05:29:19;99544.03;;;28.08;100.00
3434;BME280;1730;41.932;25.548;2023-08-12T05:31:46;99543.84;;;28.47;100.00
3434;BME280;1730;41.932;25.548;2023-08-12T05:34:12;99550.84;;;28.86;100.00
3434;BME280;1730;41.932;25.548;2023-08-12T05:36:37;99542.72;;;29.22;100.00
3434;BME280;1730;41.932;25.548;2023-08-12T05:39:03;99522.00;;;29.54;100.00
3434;BME280;1730;41.932;25.548;2023-08-12T05:41:28;99220.66;;;26.92;100.00
3434;BME280;1730;41.932;25.548;2023-08-12T05:43:54;99511.97;;;28.86;100.00
3434;BME280;1730;41.932;25.548;2023-08-12T05:46:21;99535.37;;;28.63;100.00
3434;BME280;1730;41.932;25.548;2023-08-12T05:48:46;99500.00;;;28.86;100.00
3434;BME280;1730;41.932;25.548;2023-08-12T05:51:12;99519.78;;;27.94;100.00
3434;BME280;1730;41.932;25.548;2023-08-12T05:53:38;99428.22;;;27.89;100.00
3434;BME280;1730;41.932;25.548;2023-08-12T05:56:05;99551.97;;;28.00;100.00
3434;BME280;1730;41.932;25.548;2023-08-12T05:58:31;99523.56;;;27.61;100.00
3434;BME280;1730;41.932;25.548;2023-08-12T06:00:56;99525.62;;;28.24;100.00
3434;BME280;1730;41.932;25.548;2023-08-12T06:03:21;99445.47;;;27.64;100.00
3434;BME280;1730;41.932;25.548;2023-08-12T06:05:47;99515.00;;;28.85;100.00
3434;BME280;1730;41.932;25.548;2023-08-12T06:08:13;99524.72;;;29.29;100.00
3434;BME280;1730;41.932;25.548;2023-08-12T06:10:39;99526.22;;;29.00;100.00
3434;BME280;1730;41.932;25.548;2023-08-12T06:13:05;99508.75;;;28.31;100.00
3434;BME280;1730;41.932;25.548;2023-08-12T06:15:31;99527.09;;;28.68;100.00
3434;BME280;1730;41.932;25.548;2023-08-12T06:17:59;99530.44;;;28.71;100.00
3434;BME280;1730;41.932;25.548;2023-08-12T06:20:25;99525.97;;;28.06;100.00
3434;BME280;1730;41.932;25.548;2023-08-12T06:22:51;99506.00;;;28.36;100.00
3434;BME280;1730;41.932;25.548;2023-08-12T06:25:17;99519.53;;;27.73;100.00
3434;BME280;1730;41.932;25.548;2023-08-12T06:27:44;99526.22;;;28.04;100.00
3434;BME280;1730;41.932;25.548;2023-08-12T06:30:14;99524.47;;;28.20;100.00
3434;BME280;1730;41.932;25.548;2023-08-12T06:32:40;99375.22;;;27.00;100.00
3434;BME280;1730;41.932;25.548;2023-08-12T06:35:06;99516.41;;;28.50;100.00
3434;BME280;1730;41.932;25.548;2023-08-12T06:37:32;99519.41;;;28.81;100.00
3434;BME280;1730;41.932;25.548;2023-08-12T06:39:57;99524.94;;;28.76;100.00
3434;BME280;1730;41.932;25.548;2023-08-12T06:42:23;99514.66;;;27.81;100.00
3434;BME280;1730;41.932;25.548;2023-08-12T06:44:56;99464.16;;;28.84;100.00
3434;BME280;1730;41.932;25.548;2023-08-12T06:47:22;99506.22;;;29.65;99.40
3434;BME280;1730;41.932;25.548;2023-08-12T06:49:47;99522.00;;;28.97;100.00
3434;BME280;1730;41.932;25.548;2023-08-12T06:52:13;99429.97;;;28.00;100.00
3434;BME280;1730;41.932;25.548;2023-08-12T06:54:39;99494.81;;;27.94;100.00
3434;BME280;1730;41.932;25.548;2023-08-12T06:57:04;99519.47;;;27.63;100.00
3434;BME280;1730;41.932;25.548;2023-08-12T06:59:30;99512.34;;;27.72;100.00
3434;BME280;1730;41.932;25.548;2023-08-12T07:01:55;99520.09;;;27.49;100.00
3434;BME280;1730;41.932;25.548;2023-08-12T07:04:21;99513.53;;;28.40;100.00
3434;BME280;1730;41.932;25.548;2023-08-12T07:06:46;99502.53;;;28.87;100.00
3434;BME280;1730;41.932;25.548;2023-08-12T07:09:12;99511.25;;;29.11;100.00
3434;BME280;1730;41.932;25.548;2023-08-12T07:11:38;99416.19;;;28.47;100.00
3434;BME280;1730;41.932;25.548;2023-08-12T07:14:03;99420.56;;;28.01;100.00
3434;BME280;1730;41.932;25.548;2023-08-12T07:16:29;99375.81;;;28.24;93.26
3434;BME280;1730;41.932;25.548;2023-08-12T07:18:54;99397.03;;;28.45;90.23
3434;BME280;1730;41.932;25.548;2023-08-12T07:21:20;99496.50;;;28.27;97.62
3434;BME280;1730;41.932;25.548;2023-08-12T07:23:45;99497.19;;;28.81;95.71
3434;BME280;1730;41.932;25.548;2023-08-12T07:26:12;99480.09;;;28.99;93.99
3434;BME280;1730;41.932;25.548;2023-08-12T07:28:37;99374.00;;;28.03;87.74
3434;BME280;1730;41.932;25.548;2023-08-12T07:31:03;99500.47;;;28.04;92.45
3434;BME280;1730;41.932;25.548;2023-08-12T07:33:28;99500.41;;;27.99;93.93
3434;BME280;1730;41.932;25.548;2023-08-12T07:35:54;99499.97;;;28.44;93.19
3434;BME280;1730;41.932;25.548;2023-08-12T07:38:19;99500.97;;;28.64;88.79
3434;BME280;1730;41.932;25.548;2023-08-12T07:40:45;99493.59;;;28.80;87.22
3434;BME280;1730;41.932;25.548;2023-08-12T07:43:10;99513.28;;;28.74;93.72
3434;BME280;1730;41.932;25.548;2023-08-12T07:45:35;99489.56;;;28.24;88.47
3434;BME280;1730;41.932;25.548;2023-08-12T07:48:01;99502.25;;;28.15;92.30
3434;BME280;1730;41.932;25.548;2023-08-12T07:50:26;99497.87;;;28.24;93.59
3434;BME280;1730;41.932;25.548;2023-08-12T07:52:52;99481.19;;;28.19;90.02
3434;BME280;1730;41.932;25.548;2023-08-12T07:55:18;99501.50;;;27.98;93.14
3434;BME280;1730;41.932;25.548;2023-08-12T07:57:44;99491.00;;;28.32;90.07
3434;BME280;1730;41.932;25.548;2023-08-12T08:00:11;99491.94;;;28.10;89.01
3434;BME280;1730;41.932;25.548;2023-08-12T08:02:38;99446.81;;;28.20;87.63
3434;BME280;1730;41.932;25.548;2023-08-12T08:05:04;99490.84;;;28.11;91.84
3434;BME280;1730;41.932;25.548;2023-08-12T08:07:30;99472.81;;;28.14;92.30
3434;BME280;1730;41.932;25.548;2023-08-12T08:09:55;99484.91;;;28.35;91.05
3434;BME280;1730;41.932;25.548;2023-08-12T08:12:21;99482.37;;;28.28;88.68
3434;BME280;1730;41.932;25.548;2023-08-12T08:14:46;99477.91;;;27.95;94.00
3434;BME280;1730;41.932;25.548;2023-08-12T08:17:12;99347.53;;;27.26;90.78
3434;BME280;1730;41.932;25.548;2023-08-12T08:19:37;99446.47;;;27.85;93.73
3434;BME280;1730;41.932;25.548;2023-08-12T08:22:03;99475.53;;;28.41;90.76
3434;BME280;1730;41.932;25.548;2023-08-12T08:24:29;99468.72;;;28.16;91.08
3434;BME280;1730;41.932;25.548;2023-08-12T08:26:54;99466.00;;;28.27;92.16
3434;BME280;1730;41.932;25.548;2023-08-12T08:29:20;99396.72;;;28.37;87.39
3434;BME280;1730;41.932;25.548;2023-08-12T08:31:46;99472.06;;;29.07;86.11
3434;BME280;1730;41.932;25.548;2023-08-12T08:34:12;99469.31;;;28.65;87.96
3434;BME280;1730;41.932;25.548;2023-08-12T08:36:38;99468.91;;;28.89;89.20
3434;BME280;1730;41.932;25.548;2023-08-12T08:39:03;99471.62;;;28.37;89.17
3434;BME280;1730;41.932;25.548;2023-08-12T08:41:31;99456.81;;;28.26;85.81
3434;BME280;1730;41.932;25.548;2023-08-12T08:44:02;99463.53;;;28.30;89.01
3434;BME280;1730;41.932;25.548;2023-08-12T08:46:29;99460.72;;;28.67;83.10
3434;BME280;1730;41.932;25.548;2023-08-12T08:48:55;99461.25;;;28.64;79.91
3434;BME280;1730;41.932;25.548;2023-08-12T08:51:22;99459.72;;;28.41;80.11
3434;BME280;1730;41.932;25.548;2023-08-12T08:53:49;99456.81;;;28.26;80.85
3434;BME280;1730;41.932;25.548;2023-08-12T08:56:15;99467.22;;;28.41;77.48
3434;BME280;1730;41.932;25.548;2023-08-12T08:58:40;99451.91;;;28.33;77.73
3434;BME280;1730;41.932;25.548;2023-08-12T09:01:09;99448.75;;;28.61;80.25
3434;BME280;1730;41.932;25.548;2023-08-12T09:03:38;99429.31;;;28.61;77.08
3434;BME280;1730;41.932;25.548;2023-08-12T09:06:03;99446.97;;;28.82;77.02
3434;BME280;1730;41.932;25.548;2023-08-12T09:08:31;99436.50;;;28.57;77.53
3434;BME280;1730;41.932;25.548;2023-08-12T09:10:59;99315.78;;;28.08;76.52
3434;BME280;1730;41.932;25.548;2023-08-12T09:13:25;99429.06;;;29.20;74.79
3434;BME280;1730;41.932;25.548;2023-08-12T09:15:50;99416.88;;;29.26;74.06
3434;BME280;1730;41.932;25.548;2023-08-12T09:18:16;99424.00;;;29.07;73.54
3434;BME280;1730;41.932;25.548;2023-08-12T09:20:43;99422.34;;;28.54;76.83
3434;BME280;1730;41.932;25.548;2023-08-12T09:23:09;99424.78;;;28.87;76.34
3434;BME280;1730;41.932;25.548;2023-08-12T09:25:44;99444.59;;;29.16;72.22
3434;BME280;1730;41.932;25.548;2023-08-12T09:28:10;99421.34;;;29.37;73.33
3434;BME280;1730;41.932;25.548;2023-08-12T09:30:35;99412.22;;;28.80;74.07
3434;BME280;1730;41.932;25.548;2023-08-12T09:33:03;99353.97;;;28.90;70.72
3434;BME280;1730;41.932;25.548;2023-08-12T09:35:39;99410.19;;;29.22;69.75
3434;BME280;1730;41.932;25.548;2023-08-12T09:38:07;99410.81;;;29.54;69.85
3434;BME280;1730;41.932;25.548;2023-08-12T09:40:35;99413.03;;;29.63;67.46
3434;BME280;1730;41.932;25.548;2023-08-12T09:43:01;99342.69;;;29.32;65.49
3434;BME280;1730;41.932;25.548;2023-08-12T09:45:27;99396.41;;;29.93;65.89
3434;BME280;1730;41.932;25.548;2023-08-12T09:47:54;99400.31;;;29.97;67.14
3434;BME280;1730;41.932;25.548;2023-08-12T09:50:22;99395.84;;;30.11;68.17
3434;BME280;1730;41.932;25.548;2023-08-12T09:52:49;99398.91;;;29.79;65.97
3434;BME280;1730;41.932;25.548;2023-08-12T09:55:16;99401.88;;;29.32;65.51
3434;BME280;1730;41.932;25.548;2023-08-12T09:57:43;99391.91;;;29.46;64.46
3434;BME280;1730;41.932;25.548;2023-08-12T10:00:12;99392.75;;;29.62;64.87
3434;BME280;1730;41.932;25.548;2023-08-12T10:02:46;99393.63;;;29.98;61.15
3434;BME280;1730;41.932;25.548;2023-08-12T10:05:21;99391.13;;;29.66;64.12
3434;BME280;1730;41.932;25.548;2023-08-12T10:07:48;99374.97;;;29.58;61.71
3434;BME280;1730;41.932;25.548;2023-08-12T10:10:15;99369.44;;;29.88;61.10
3434;BME280;1730;41.932;25.548;2023-08-12T10:12:41;99379.41;;;29.84;60.89
3434;BME280;1730;41.932;25.548;2023-08-12T10:15:07;99383.87;;;29.85;58.98
3434;BME280;1730;41.932;25.548;2023-08-12T10:17:34;99381.66;;;29.97;58.57
3434;BME280;1730;41.932;25.548;2023-08-12T10:20:02;99374.41;;;30.07;60.75
3434;BME280;1730;41.932;25.548;2023-08-12T10:22:30;99362.69;;;30.35;56.37
3434;BME280;1730;41.932;25.548;2023-08-12T10:24:59;99282.66;;;29.91;54.55
3434;BME280;1730;41.932;25.548;2023-08-12T10:27:26;99365.09;;;30.72;56.44
3434;BME280;1730;41.932;25.548;2023-08-12T10:29:52;99357.19;;;30.94;55.38
3434;BME280;1730;41.932;25.548;2023-08-12T10:32:17;99358.97;;;30.75;53.36
3434;BME280;1730;41.932;25.548;2023-08-12T10:34:43;99335.12;;;30.54;53.28
3434;BME280;1730;41.932;25.548;2023-08-12T10:37:10;99352.34;;;30.56;54.32
3434;BME280;1730;41.932;25.548;2023-08-12T10:39:36;99349.88;;;30.49;54.49
3434;BME280;1730;41.932;25.548;2023-08-12T10:42:02;99340.84;;;30.72;53.47
3434;BME280;1730;41.932;25.548;2023-08-12T10:44:49;99344.84;;;30.56;52.99
3434;BME280;1730;41.932;25.548;2023-08-12T10:47:16;99343.72;;;30.62;53.81
3434;BME280;1730;41.932;25.548;2023-08-12T10:49:52;99311.84;;;30.04;55.39
3434;BME280;1730;41.932;25.548;2023-08-12T10:52:30;99341.88;;;30.07;55.94
3434;BME280;1730;41.932;25.548;2023-08-12T10:55:20;99340.47;;;30.15;55.54
3434;BME280;1730;41.932;25.548;2023-08-12T10:57:47;99346.91;;;29.95;56.13
3434;BME280;1730;41.932;25.548;2023-08-12T11:00:20;99327.69;;;29.58;56.16
3434;BME280;1730;41.932;25.548;2023-08-12T11:02:51;99335.78;;;29.75;57.02
3434;BME280;1730;41.932;25.548;2023-08-12T11:05:17;99328.53;;;29.69;55.97
3434;BME280;1730;41.932;25.548;2023-08-12T11:07:48;99317.31;;;30.39;54.58
3434;BME280;1730;41.932;25.548;2023-08-12T11:10:24;99329.91;;;31.01;52.56
3434;BME280;1730;41.932;25.548;2023-08-12T11:15:41;99333.19;;;30.39;53.58
3434;BME280;1730;41.932;25.548;2023-08-12T11:18:09;99310.66;;;30.25;55.21
3434;BME280;1730;41.932;25.548;2023-08-12T11:20:35;99317.50;;;30.68;53.87
3434;BME280;1730;41.932;25.548;2023-08-12T11:23:02;99315.63;;;30.54;53.71
3434;BME280;1730;41.932;25.548;2023-08-12T11:25:29;99153.41;;;29.64;53.93
3434;BME280;1730;41.932;25.548;2023-08-12T11:27:55;99308.13;;;30.49;53.78
3434;BME280;1730;41.932;25.548;2023-08-12T11:30:22;99315.91;;;30.52;53.07
3434;BME280;1730;41.932;25.548;2023-08-12T11:32:49;99314.19;;;30.61;51.89
3434;BME280;1730;41.932;25.548;2023-08-12T11:35:17;99307.59;;;30.96;51.63
3434;BME280;1730;41.932;25.548;2023-08-12T11:37:46;99306.84;;;31.29;51.08
3434;BME280;1730;41.932;25.548;2023-08-12T11:40:13;99292.03;;;30.85;50.99
3434;BME280;1730;41.932;25.548;2023-08-12T11:42:52;99303.66;;;30.43;51.34
3434;BME280;1730;41.932;25.548;2023-08-12T11:45:23;99314.28;;;30.31;52.78
3434;BME280;1730;41.932;25.548;2023-08-12T11:47:49;99307.75;;;30.71;51.92
3434;BME280;1730;41.932;25.548;2023-08-12T11:50:18;99270.19;;;31.12;51.35
3434;BME280;1730;41.932;25.548;2023-08-12T11:52:44;99287.94;;;31.89;49.77
3434;BME280;1730;41.932;25.548;2023-08-12T11:55:11;99277.97;;;32.12;48.23
3434;BME280;1730;41.932;25.548;2023-08-12T11:57:39;99291.63;;;32.13;47.90
3434;BME280;1730;41.932;25.548;2023-08-12T12:00:06;99297.09;;;31.32;49.39
3434;BME280;1730;41.932;25.548;2023-08-12T12:02:56;99305.94;;;30.95;51.56
3434;BME280;1730;41.932;25.548;2023-08-12T12:05:23;99297.00;;;30.39;52.61
3434;BME280;1730;41.932;25.548;2023-08-12T12:07:50;99294.19;;;30.44;52.50
3434;BME280;1730;41.932;25.548;2023-08-12T12:12:47;99277.78;;;30.37;53.15
3434;BME280;1730;41.932;25.548;2023-08-12T12:15:14;99254.97;;;30.35;51.68
3434;BME280;1730;41.932;25.548;2023-08-12T12:17:42;99088.88;;;29.67;51.22
3434;BME280;1730;41.932;25.548;2023-08-12T12:20:10;99215.87;;;30.66;49.78
3434;BME280;1730;41.932;25.548;2023-08-12T12:22:36;99280.28;;;31.03;49.05
3434;BME280;1730;41.932;25.548;2023-08-12T12:25:07;99280.28;;;31.03;51.50
3434;BME280;1730;41.932;25.548;2023-08-12T12:27:34;99274.56;;;30.79;54.79
3434;BME280;1730;41.932;25.548;2023-08-12T12:30:03;99277.37;;;30.74;53.31
3434;BME280;1730;41.932;25.548;2023-08-12T12:32:38;99286.41;;;30.46;53.71
3434;BME280;1730;41.932;25.548;2023-08-12T12:35:04;99273.09;;;30.28;54.51
3434;BME280;1730;41.932;25.548;2023-08-12T12:37:34;99276.87;;;30.62;54.04
3434;BME280;1730;41.932;25.548;2023-08-12T12:40:00;99251.16;;;30.16;53.64
3434;BME280;1730;41.932;25.548;2023-08-12T12:42:25;99208.50;;;30.36;54.25
3434;BME280;1730;41.932;25.548;2023-08-12T12:44:51;99227.34;;;30.54;54.60
3434;BME280;1730;41.932;25.548;2023-08-12T12:47:16;99252.13;;;30.56;54.45
3434;BME280;1730;41.932;25.548;2023-08-12T12:49:47;99252.69;;;30.53;55.06
3434;BME280;1730;41.932;25.548;2023-08-12T12:52:13;99253.41;;;30.14;58.47
3434;BME280;1730;41.932;25.548;2023-08-12T12:54:39;99243.00;;;30.35;58.62
3434;BME280;1730;41.932;25.548;2023-08-12T12:57:05;99253.56;;;30.48;57.38
3434;BME280;1730;41.932;25.548;2023-08-12T12:59:30;99245.53;;;30.36;58.54
3434;BME280;1730;41.932;25.548;2023-08-12T13:01:56;99249.72;;;30.24;58.04
3434;BME280;1730;41.932;25.548;2023-08-12T13:04:22;99264.72;;;30.33;57.21
3434;BME280;1730;41.932;25.548;2023-08-12T13:06:47;99140.16;;;29.30;58.33
3434;BME280;1730;41.932;25.548;2023-08-12T13:09:13;99266.16;;;30.20;57.85
3434;BME280;1730;41.932;25.548;2023-08-12T13:11:38;99242.22;;;30.19;59.39